createdAt,value
2022-10-11T00:03:00.123Z,100625.03
2022-10-11T00:06:05.832Z,100619.41
2022-10-11T00:09:13.884Z,100618.94
2022-10-11T00:12:17.001Z,100610.28
2022-10-11T00:15:21.682Z,100614.56
2022-10-11T00:18:24.995Z,100610.34
2022-10-11T00:21:27.884Z,100605.88
2022-10-11T00:24:31.046Z,100609.69
2022-10-11T00:27:34.722Z,100610.69
2022-10-11T00:30:37.684Z,100604.66
2022-10-11T00:33:40.594Z,100600.38
2022-10-11T00:36:45.226Z,100600.22
2022-10-11T00:39:47.960Z,100602.97
2022-10-11T00:42:51.701Z,100596.41
2022-10-11T00:45:58.214Z,100601.41
2022-10-11T00:49:27.465Z,100601.94
2022-10-11T00:52:35.178Z,100599.09
2022-10-11T00:55:42.917Z,100598.12
2022-10-11T00:58:45.831Z,100596.50
2022-10-11T01:01:49.578Z,100587.50
2022-10-11T01:05:11.410Z,100588.12
2022-10-11T01:08:16.680Z,100588.06
2022-10-11T01:11:23.256Z,100595.97
2022-10-11T01:14:51.019Z,100596.94
2022-10-11T01:18:22.000Z,100594.75
2022-10-11T01:21:39.336Z,100586.37
2022-10-11T01:24:42.047Z,100587.84
2022-10-11T01:28:01.923Z,100586.59
2022-10-11T01:31:15.830Z,100590.97
2022-10-11T01:34:19.065Z,100582.38
2022-10-11T01:37:30.295Z,100581.38
2022-10-11T01:40:47.109Z,100586.16
2022-10-11T01:43:52.501Z,100580.84
2022-10-11T01:46:55.777Z,100576.22
2022-10-11T01:50:01.144Z,100590.78
2022-10-11T01:53:23.007Z,100580.19
2022-10-11T01:56:34.153Z,100577.69
2022-10-11T02:00:09.150Z,100574.44
2022-10-11T02:03:59.505Z,100573.00
2022-10-11T02:07:17.347Z,100575.53
2022-10-11T02:10:28.971Z,100573.50
2022-10-11T02:13:38.213Z,100577.81
2022-10-11T02:16:45.832Z,100580.41
2022-10-11T02:19:53.022Z,100567.78
2022-10-11T02:23:20.775Z,100561.78
2022-10-11T02:26:28.025Z,100559.44
2022-10-11T02:29:36.101Z,100556.75
2022-10-11T02:32:42.299Z,100551.19
2022-10-11T02:35:49.740Z,100554.97
2022-10-11T02:38:59.728Z,100559.25
2022-10-11T02:42:06.845Z,100562.41
2022-10-11T02:45:25.455Z,100567.84
2022-10-11T02:48:29.660Z,100577.69
2022-10-11T02:51:33.863Z,100574.03
2022-10-11T02:54:37.254Z,100576.81
2022-10-11T02:57:40.129Z,100579.69
2022-10-11T03:00:43.758Z,100582.22
2022-10-11T03:03:46.895Z,100582.78
2022-10-11T03:06:49.711Z,100596.19
2022-10-11T03:09:52.791Z,100593.31
2022-10-11T03:12:55.397Z,100599.56
2022-10-11T03:16:07.203Z,100585.81
2022-10-11T03:19:10.342Z,100590.00
2022-10-11T03:22:13.454Z,100583.38
2022-10-11T03:25:16.938Z,100588.69
2022-10-11T03:28:20.454Z,100589.28
2022-10-11T03:31:23.950Z,100588.09
2022-10-11T03:34:27.055Z,100585.91
2022-10-11T03:37:29.791Z,100589.00
2022-10-11T03:40:32.772Z,100594.06
2022-10-11T03:43:36.133Z,100594.13
2022-10-11T03:46:39.294Z,100590.25
2022-10-11T03:49:43.795Z,100585.59
2022-10-11T03:52:46.952Z,100591.50
2022-10-11T03:55:54.364Z,100583.19
2022-10-11T03:58:57.521Z,100590.06
2022-10-11T04:02:00.495Z,100591.34
2022-10-11T04:05:05.958Z,100595.34
2022-10-11T04:08:12.156Z,100600.75
2022-10-11T04:11:15.982Z,100600.84
2022-10-11T04:14:19.003Z,100606.09
2022-10-11T04:17:22.295Z,100608.75
2022-10-11T04:20:25.039Z,100603.34
2022-10-11T04:23:28.001Z,100596.25
2022-10-11T04:26:30.719Z,100596.03
2022-10-11T04:29:33.718Z,100608.78
2022-10-11T04:32:37.052Z,100603.84
2022-10-11T04:35:40.374Z,100611.22
2022-10-11T04:38:43.178Z,100611.78
2022-10-11T04:41:46.437Z,100617.44
2022-10-11T04:44:49.224Z,100607.69
2022-10-11T04:47:52.283Z,100612.75
2022-10-11T04:50:58.662Z,100615.94
2022-10-11T04:54:01.485Z,100618.09
2022-10-11T04:57:04.259Z,100609.59
2022-10-11T05:00:07.707Z,100616.91
2022-10-11T05:03:10.352Z,100620.19
2022-10-11T05:06:13.792Z,100618.31
2022-10-11T05:09:16.911Z,100617.47
2022-10-11T05:12:20.063Z,100621.09
2022-10-11T05:15:22.588Z,100622.12
2022-10-11T05:18:25.919Z,100615.66
2022-10-11T05:21:29.994Z,100614.19
2022-10-11T05:24:33.108Z,100614.50
2022-10-11T05:27:35.691Z,100612.19
2022-10-11T05:30:38.713Z,100618.88
2022-10-11T05:33:41.467Z,100624.00
2022-10-11T05:36:47.202Z,100625.69
2022-10-11T05:39:49.813Z,100625.09
2022-10-11T05:42:52.664Z,100630.97
2022-10-11T05:45:55.295Z,100633.41
2022-10-11T05:48:58.158Z,100634.94
2022-10-11T05:52:00.673Z,100641.75
2022-10-11T05:55:03.823Z,100651.75
2022-10-11T05:58:07.408Z,100643.69
2022-10-11T06:01:20.644Z,100650.09
2022-10-11T06:04:23.491Z,100656.38
2022-10-11T06:07:26.468Z,100653.19
2022-10-11T06:10:29.275Z,100665.16
2022-10-11T06:13:32.255Z,100665.22
2022-10-11T06:16:35.083Z,100665.50
2022-10-11T06:19:37.557Z,100667.19
2022-10-11T06:22:40.357Z,100665.41
2022-10-11T06:25:42.814Z,100666.91
2022-10-11T06:28:46.054Z,100677.37
2022-10-11T06:31:48.998Z,100680.03
2022-10-11T06:34:51.803Z,100679.44
2022-10-11T06:37:54.655Z,100674.00
2022-10-11T06:40:57.561Z,100678.00
2022-10-11T06:44:00.353Z,100675.19
2022-10-11T06:47:03.550Z,100678.00
2022-10-11T06:50:06.449Z,100677.81
2022-10-11T06:53:09.789Z,100686.19
2022-10-11T06:56:13.432Z,100692.88
2022-10-11T06:59:16.318Z,100695.06
2022-10-11T07:02:19.075Z,100691.59
2022-10-11T07:05:22.066Z,100685.25
2022-10-11T07:08:27.646Z,100687.00
2022-10-11T07:11:30.815Z,100688.88
2022-10-11T07:14:33.367Z,100694.37
2022-10-11T07:17:36.255Z,100698.25
2022-10-11T07:20:38.837Z,100700.44
2022-10-11T07:23:43.345Z,100703.50
2022-10-11T07:26:46.153Z,100701.00
2022-10-11T07:29:49.281Z,100705.66
2022-10-11T07:32:52.129Z,100690.00
2022-10-11T07:35:57.800Z,100701.59
2022-10-11T07:39:00.638Z,100708.41
2022-10-11T07:42:03.719Z,100713.75
2022-10-11T07:45:06.596Z,100705.69
2022-10-11T07:48:09.634Z,100698.00
2022-10-11T07:51:15.274Z,100698.09
2022-10-11T07:54:18.120Z,100699.41
2022-10-11T07:57:20.646Z,100698.88
2022-10-11T08:00:24.275Z,100699.22
2022-10-11T08:03:27.017Z,100704.13
2022-10-11T08:06:32.772Z,100701.81
2022-10-11T08:09:35.960Z,100700.78
2022-10-11T08:12:38.882Z,100706.97
2022-10-11T08:15:41.898Z,100706.84
2022-10-11T08:18:44.919Z,100709.16
2022-10-11T08:21:48.191Z,100716.47
2022-10-11T08:24:50.984Z,100718.25
2022-10-11T08:27:54.166Z,100716.41
2022-10-11T08:30:56.991Z,100718.50
2022-10-11T08:34:00.020Z,100719.72
2022-10-11T08:37:02.543Z,100721.59
2022-10-11T08:40:06.634Z,100726.22
2022-10-11T08:43:24.936Z,100720.28
2022-10-11T08:46:32.024Z,100722.44
2022-10-11T08:49:35.033Z,100713.81
2022-10-11T08:52:37.811Z,100720.94
2022-10-11T08:55:51.345Z,100719.38
2022-10-11T08:59:12.652Z,100713.03
2022-10-11T09:03:03.397Z,100718.78
2022-10-11T09:06:07.565Z,100719.72
2022-10-11T09:09:46.075Z,100723.34
2022-10-11T09:13:16.239Z,100722.63
2022-10-11T09:16:36.917Z,100718.69
2022-10-11T09:19:55.196Z,100721.16
2022-10-11T09:23:00.778Z,100721.03
2022-10-11T09:26:10.702Z,100720.19
2022-10-11T09:29:28.987Z,100720.38
2022-10-11T09:32:38.094Z,100723.66
2022-10-11T09:35:45.406Z,100725.22
2022-10-11T09:38:57.302Z,100713.53
2022-10-11T09:42:08.802Z,100726.22
2022-10-11T09:45:20.969Z,100724.97
2022-10-11T09:48:28.447Z,100718.97
2022-10-11T09:51:32.798Z,100721.72
2022-10-11T09:54:44.499Z,100717.41
2022-10-11T09:57:54.798Z,100723.62
2022-10-11T10:01:09.575Z,100722.66
2022-10-11T10:04:16.966Z,100722.53
2022-10-11T10:07:20.267Z,100727.47
2022-10-11T10:10:34.049Z,100723.50
2022-10-11T10:13:42.234Z,100720.94
2022-10-11T10:16:45.065Z,100725.03
2022-10-11T10:19:51.803Z,100715.44
2022-10-11T10:22:54.964Z,100721.31
2022-10-11T10:26:30.753Z,100723.50
2022-10-11T10:29:33.917Z,100714.16
2022-10-11T10:32:52.199Z,100711.25
2022-10-11T10:36:05.872Z,100709.62
2022-10-11T10:39:16.301Z,100702.97
2022-10-11T10:42:20.668Z,100705.91
2022-10-11T10:45:30.049Z,100701.87
2022-10-11T10:52:21.361Z,100701.22
2022-10-11T10:55:44.504Z,100705.50
2022-10-11T10:59:12.207Z,100698.25
2022-10-11T11:02:40.305Z,100709.47
2022-10-11T11:06:24.405Z,100691.22
2022-10-11T11:09:41.664Z,100689.16
2022-10-11T11:13:20.005Z,100689.81
2022-10-11T11:16:26.002Z,100686.59
2022-10-11T11:19:44.941Z,100689.50
2022-10-11T11:23:08.194Z,100687.38
2022-10-11T11:26:32.149Z,100686.62
2022-10-11T11:30:02.530Z,100689.53
2022-10-11T11:33:37.723Z,100692.13
2022-10-11T11:36:57.997Z,100686.19
2022-10-11T11:40:35.518Z,100686.44
2022-10-11T11:43:51.877Z,100679.47
2022-10-11T11:47:03.949Z,100676.06
2022-10-11T11:50:15.133Z,100672.16
2022-10-11T11:53:24.756Z,100675.03
2022-10-11T11:56:27.773Z,100671.34
2022-10-11T11:59:33.924Z,100674.75
2022-10-11T12:02:57.501Z,100674.44
2022-10-11T12:06:18.356Z,100672.69
2022-10-11T12:09:23.078Z,100679.22
2022-10-11T12:12:36.476Z,100673.94
2022-10-11T12:15:39.187Z,100673.41
2022-10-11T12:18:59.695Z,100668.56
2022-10-11T12:22:37.775Z,100663.87
2022-10-11T12:25:42.596Z,100664.63
2022-10-11T12:29:04.485Z,100663.06
2022-10-11T12:32:07.298Z,100661.94
2022-10-11T12:35:36.599Z,100655.84
2022-10-11T12:38:43.266Z,100655.50
2022-10-11T12:41:49.855Z,100655.50
2022-10-11T12:45:10.757Z,100655.59
2022-10-11T12:48:41.042Z,100653.69
2022-10-11T12:51:50.367Z,100655.41
2022-10-11T12:54:52.829Z,100652.62
2022-10-11T12:58:12.235Z,100648.75
2022-10-11T13:01:23.336Z,100640.78
2022-10-11T13:04:31.804Z,100643.97
2022-10-11T13:07:35.730Z,100639.63
2022-10-11T13:10:44.322Z,100652.09
2022-10-11T13:13:56.483Z,100653.34
2022-10-11T13:17:16.950Z,100643.13
2022-10-11T13:20:25.227Z,100647.50
2022-10-11T13:23:34.731Z,100646.66
2022-10-11T13:26:38.051Z,100644.97
2022-10-11T13:29:44.960Z,100647.47
2022-10-11T13:32:47.814Z,100642.59
2022-10-11T13:35:52.413Z,100637.81
2022-10-11T13:39:00.439Z,100646.16
2022-10-11T13:42:08.946Z,100644.16
2022-10-11T13:45:15.133Z,100644.75
2022-10-11T13:48:19.796Z,100648.47
2022-10-11T13:51:38.377Z,100648.47
2022-10-11T13:54:54.584Z,100641.47
2022-10-11T13:57:59.325Z,100647.03
2022-10-11T14:01:17.312Z,100642.84
2022-10-11T14:04:20.502Z,100652.84
2022-10-11T14:07:39.026Z,100651.34
2022-10-11T14:10:51.736Z,100643.94
2022-10-11T14:13:58.717Z,100652.25
2022-10-11T14:17:10.992Z,100637.53
2022-10-11T14:20:33.752Z,100649.34
2022-10-11T14:23:36.578Z,100645.19
2022-10-11T14:27:06.110Z,100645.28
2022-10-11T14:30:25.470Z,100654.66
2022-10-11T14:33:28.901Z,100651.91
2022-10-11T14:36:34.767Z,100653.63
2022-10-11T14:39:37.828Z,100661.47
2022-10-11T14:42:41.897Z,100650.84
2022-10-11T14:45:44.722Z,100653.56
2022-10-11T14:48:55.331Z,100650.56
2022-10-11T14:51:59.193Z,100640.31
2022-10-11T14:55:02.275Z,100651.25
2022-10-11T14:58:09.612Z,100651.94
2022-10-11T15:01:15.757Z,100650.56
2022-10-11T15:04:22.805Z,100644.72
2022-10-11T15:07:25.641Z,100644.56
2022-10-11T15:10:36.487Z,100644.34
2022-10-11T15:13:39.395Z,100643.09
2022-10-11T15:16:42.319Z,100644.81
2022-10-11T15:19:45.690Z,100649.22
2022-10-11T15:22:48.689Z,100660.47
2022-10-11T15:26:07.104Z,100656.47
2022-10-11T15:29:14.236Z,100663.50
2022-10-11T15:32:17.168Z,100665.38
2022-10-11T15:35:21.377Z,100660.81
2022-10-11T15:38:25.787Z,100662.41
2022-10-11T15:41:33.904Z,100668.00
2022-10-11T15:44:36.717Z,100666.69
2022-10-11T15:47:39.687Z,100671.06
2022-10-11T15:50:43.219Z,100669.75
2022-10-11T15:53:46.321Z,100669.12
2022-10-11T15:56:49.195Z,100671.22
2022-10-11T15:59:51.874Z,100677.31
2022-10-11T16:02:56.647Z,100676.00
2022-10-11T16:06:04.913Z,100682.88
2022-10-11T16:09:08.607Z,100688.69
2022-10-11T16:12:11.533Z,100686.66
2022-10-11T16:15:17.409Z,100687.44
2022-10-11T16:18:22.510Z,100690.03
2022-10-11T16:21:25.123Z,100699.78
2022-10-11T16:24:28.022Z,100705.66
2022-10-11T16:27:31.419Z,100698.09
2022-10-11T16:30:38.744Z,100703.06
2022-10-11T16:33:47.740Z,100707.66
2022-10-11T16:36:50.687Z,100712.97
2022-10-11T16:39:53.380Z,100710.78
2022-10-11T16:42:56.344Z,100712.63
2022-10-11T16:45:58.906Z,100706.97
2022-10-11T16:49:01.891Z,100717.63
2022-10-11T16:52:04.704Z,100718.63
2022-10-11T16:55:08.540Z,100719.75
2022-10-11T16:58:11.251Z,100727.34
2022-10-11T17:01:14.300Z,100722.63
2022-10-11T17:04:17.109Z,100726.41
2022-10-11T17:07:21.967Z,100726.56
2022-10-11T17:10:39.285Z,100729.38
2022-10-11T17:13:45.554Z,100736.66
2022-10-11T17:16:48.258Z,100729.97
2022-10-11T17:19:51.395Z,100734.19
2022-10-11T17:22:55.199Z,100742.22
2022-10-11T17:25:58.058Z,100741.34
2022-10-11T17:29:02.266Z,100737.16
2022-10-11T17:32:05.769Z,100753.28
2022-10-11T17:35:09.336Z,100749.91
2022-10-11T17:38:12.331Z,100750.19
2022-10-11T17:41:15.434Z,100758.31
2022-10-11T17:44:18.623Z,100754.84
2022-10-11T17:47:21.238Z,100742.91
2022-10-11T17:50:24.060Z,100754.84
2022-10-11T17:53:26.908Z,100758.34
2022-10-11T17:56:35.099Z,100751.31
2022-10-11T17:59:40.314Z,100748.66
2022-10-11T18:02:43.188Z,100749.94
2022-10-11T18:05:46.030Z,100746.84
2022-10-11T18:08:48.757Z,100747.41
2022-10-11T18:11:52.045Z,100755.72
2022-10-11T18:14:56.571Z,100751.66
2022-10-11T18:17:59.871Z,100753.62
2022-10-11T18:21:06.208Z,100753.47
2022-10-11T18:24:16.430Z,100764.69
2022-10-11T18:27:18.972Z,100763.00
2022-10-11T18:30:22.294Z,100764.12
2022-10-11T18:33:28.260Z,100762.47
2022-10-11T18:36:35.559Z,100768.09
2022-10-11T18:39:38.327Z,100772.59
2022-10-11T18:42:44.544Z,100774.09
2022-10-11T18:45:47.801Z,100773.09
2022-10-11T18:48:56.238Z,100770.22
2022-10-11T18:51:59.050Z,100761.97
2022-10-11T18:55:05.514Z,100761.81
2022-10-11T18:58:08.256Z,100767.38
2022-10-11T19:01:17.318Z,100769.72
2022-10-11T19:04:20.253Z,100766.94
2022-10-11T19:07:26.573Z,100767.47
2022-10-11T19:11:06.531Z,100763.00
2022-10-11T19:14:16.551Z,100771.06
2022-10-11T19:17:22.710Z,100760.97
2022-10-11T19:20:25.599Z,100761.09
2022-10-11T19:23:32.884Z,100761.44
2022-10-11T19:26:38.138Z,100773.44
2022-10-11T19:29:40.758Z,100777.50
2022-10-11T19:32:43.785Z,100769.00
2022-10-11T19:35:56.612Z,100773.06
2022-10-11T19:39:00.091Z,100776.44
2022-10-11T19:42:04.874Z,100779.91
2022-10-11T19:45:08.882Z,100781.38
2022-10-11T19:48:11.957Z,100779.13
2022-10-11T19:51:22.637Z,100780.56
2022-10-11T19:54:25.493Z,100782.56
2022-10-11T19:57:28.360Z,100776.53
2022-10-11T20:00:31.630Z,100780.56
2022-10-11T20:03:34.884Z,100775.25
2022-10-11T20:06:41.241Z,100777.75
2022-10-11T20:09:44.210Z,100775.09
2022-10-11T20:12:46.978Z,100786.09
2022-10-11T20:15:50.013Z,100786.06
2022-10-11T20:18:54.755Z,100790.66
2022-10-11T20:21:57.645Z,100786.63
2022-10-11T20:25:00.742Z,100785.53
2022-10-11T20:28:03.797Z,100784.41
2022-10-11T20:31:33.331Z,100782.03
2022-10-11T20:34:39.453Z,100781.12
2022-10-11T20:37:42.080Z,100785.03
2022-10-11T20:40:45.352Z,100781.50
2022-10-11T20:43:50.137Z,100781.97
2022-10-11T20:46:54.501Z,100784.69
2022-10-11T20:49:57.133Z,100787.19
2022-10-11T20:53:00.158Z,100787.19
2022-10-11T20:56:02.858Z,100789.59
2022-10-11T20:59:07.589Z,100802.53
2022-10-11T21:02:13.415Z,100790.59
2022-10-11T21:05:19.502Z,100791.88
2022-10-11T21:08:23.273Z,100794.38
2022-10-11T21:11:31.885Z,100794.88
2022-10-11T21:14:34.452Z,100802.69
2022-10-11T21:17:37.266Z,100802.69
2022-10-11T21:20:41.394Z,100794.50
2022-10-11T21:23:44.325Z,100798.59
2022-10-11T21:26:47.800Z,100806.13
2022-10-11T21:29:51.805Z,100804.44
2022-10-11T21:32:57.599Z,100800.44
2022-10-11T21:36:07.527Z,100803.00
2022-10-11T21:39:10.112Z,100803.22
2022-10-11T21:42:12.943Z,100805.75
2022-10-11T21:45:15.442Z,100805.88
2022-10-11T21:48:18.295Z,100799.34
2022-10-11T21:51:26.968Z,100807.44
2022-10-11T21:54:29.715Z,100795.50
2022-10-11T21:57:32.399Z,100806.22
2022-10-11T22:00:35.541Z,100804.78
2022-10-11T22:03:38.419Z,100798.97
2022-10-11T22:06:40.953Z,100799.25
2022-10-11T22:09:43.818Z,100805.63
2022-10-11T22:12:46.937Z,100806.09
2022-10-11T22:15:50.200Z,100804.91
2022-10-11T22:18:56.086Z,100804.62
2022-10-11T22:21:58.906Z,100807.53
2022-10-11T22:25:01.769Z,100807.56
2022-10-11T22:28:05.038Z,100802.97
2022-10-11T22:31:09.483Z,100797.19
2022-10-11T22:34:12.660Z,100794.88
2022-10-11T22:37:15.136Z,100800.31
2022-10-11T22:40:19.110Z,100807.31
2022-10-11T22:43:22.000Z,100805.63
2022-10-11T22:46:24.843Z,100807.44
2022-10-11T22:49:27.277Z,100805.72
2022-10-11T22:52:30.359Z,100804.16
2022-10-11T22:55:33.370Z,100812.81
2022-10-11T22:58:36.442Z,100801.34
2022-10-11T23:01:39.010Z,100809.44
2022-10-11T23:04:41.812Z,100804.84
2022-10-11T23:07:46.572Z,100805.44
2022-10-11T23:10:49.741Z,100808.84
2022-10-11T23:13:52.455Z,100808.97
2022-10-11T23:16:55.188Z,100807.25
2022-10-11T23:19:58.015Z,100811.59
2022-10-11T23:23:00.898Z,100808.97
2022-10-11T23:26:16.021Z,100818.81
2022-10-11T23:29:18.918Z,100821.69
2022-10-11T23:32:21.580Z,100815.41
2022-10-11T23:35:24.417Z,100823.97
2022-10-11T23:38:26.943Z,100825.66
2022-10-11T23:41:30.546Z,100812.75
2022-10-11T23:44:33.520Z,100821.41
2022-10-11T23:47:36.677Z,100817.50
2022-10-11T23:50:39.759Z,100813.91
2022-10-11T23:53:42.681Z,100822.44
2022-10-11T23:56:45.189Z,100818.06
2022-10-11T23:59:48.079Z,100823.94
